Aviation Digital Data Service (ADDS)

Output produced by METARs form (1657 UTC 16 June 2019)
found at http://www.aviationweather.gov/metar/data/
 
TAF SLCO 161640Z 1618/1718 00000KT 9999 FEW020 BKN080 TX34/1620Z TN22 /1711Z 
     TEMPO 1619/1623 8000 SHRA FEW020 FEW023CB BKN080
       
TAF SLCB 161640Z 1618/1718 32015KT 9999 FEW033 SCT070 TX25/1619Z TN10/1711Z 
     TEMPO 1619/1621 FEW036CB 
     BECMG 1702/1704 00000KT
       
TAF SLLP 161640Z 1618/1718 13010KT 9999 SCT015 FEW017CB BKN070 TX11/1620Z
TN01/1710Z 
     TEMPO 1619/1622 8000 VCSH 
     BECMG 1701/1703 07005KT 3000E VCFG FEW002 SCT012 BKN070 
     PROB40 
     TEMPO 1706/1710 5000 RASN 
     BECMG 1713/1715 13008KT 9999 NSW SCT015 SCT070
       
TAF SLPS 161640Z 1618/1718 09010KT 9999 SCT020 TX33/1619Z TN18/1711Z 
     BECMG 1623/1701 VRB02KT SCT023 SCT070 
     BECMG 1703/1706 24010KT BKN017 FEW023TCU BKN070
       
TAF SLET 161640Z 1618/1718 18015G25KT 8000 RA SCT008 BKN020 FEW030CB OVC070
TX23/1619Z TN15/1711Z 
     BECMG 1620/1622 9999 NSW BKN023 BKN070 
     TEMPO 1702/1705 8000 RA 
     BECMG 1715/1718 VRB02KT SCT008 BKN015
       
TAF SLVR 161640Z 1618/1718 18015G25KT 8000 RA SCT008 BKN020 FEW030CB OVC070
TX23/1619Z TN15/1711Z 
     BECMG 1620/1622 9999 NSW BKN023 BKN070 
     TEMPO 1702/1705 8000 RA 
     BECMG 1715/1718 VRB02KT SCT008 BKN015
       
TAF SLTJ 161640Z 1618/1718 13010KT 9999 FEW030 SCT070 TX25/1619Z TN08/1711Z 
     BECMG 1702/1704 00000KT 
     BECMG 1714/1716 12012KT
       
TAF SLTR 161640Z 1618/1718 00000KT 9999 FEW017 SCT070 TX33/1620Z TN21 /1711Z 
     TEMPO 1619/1622 34008KT FEW020 FEW023CB